Time;durP1;ratioP1;P1;durP2;ratioP2;P2;SDS_P1;SDS_P2;PMS_P1;PMS_P2;Temp;Humidity;BMP_temperature;BMP_pressure;BME280_temperature;BME280_humidity;BME280_pressure;Samples;Min_cycle;Max_cycle;Signal;HPM_P1;HPM_P2
2023/06/10 00:01:36;;;;;;;7.30;6.55;;;;;;;;;;5010346;28;20201;-70
2023/06/10 00:04:01;;;;;;;7.40;6.70;;;;;;;;;;5031986;28;20585;-70
2023/06/10 00:06:28;;;;;;;10.23;7.13;;;;;;;;;;5030391;28;20643;-70
2023/06/10 00:08:54;;;;;;;7.10;6.38;;;;;;;;;;5031118;28;20224;-70
2023/06/10 00:11:20;;;;;;;8.35;6.78;;;;;;;;;;5053828;22;20283;-75
2023/06/10 00:13:46;;;;;;;8.35;6.03;;;;;;;;;;5053505;28;20202;-75
2023/06/10 00:16:11;;;;;;;6.87;5.97;;;;;;;;;;5040270;28;20162;-75
2023/06/10 00:18:38;;;;;;;12.57;6.88;;;;;;;;;;5059143;28;20934;-75
2023/06/10 00:21:04;;;;;;;8.95;6.50;;;;;;;;;;5033726;28;20232;-75
2023/06/10 00:23:37;;;;;;;7.60;5.28;;;;;;;;;;5025082;28;20182;-75
2023/06/10 00:26:02;;;;;;;6.68;5.90;;;;;;;;;;5033431;28;20182;-76
2023/06/10 00:28:27;;;;;;;11.68;6.25;;;;;;;;;;5045490;28;20182;-75
2023/06/10 00:30:53;;;;;;;10.10;6.32;;;;;;;;;;5052478;28;20203;-75
2023/06/10 00:33:18;;;;;;;7.25;6.03;;;;;;;;;;5052087;28;20205;-76
2023/06/10 00:35:43;;;;;;;12.02;6.50;;;;;;;;;;5052324;28;20217;-75
2023/06/10 00:38:08;;;;;;;9.20;6.07;;;;;;;;;;5053421;28;20197;-75
2023/06/10 00:40:38;;;;;;;12.68;6.60;;;;;;;;;;5040355;28;20410;-75
2023/06/10 00:43:04;;;;;;;6.80;5.93;;;;;;;;;;5032821;28;20170;-75
2023/06/10 00:45:29;;;;;;;7.93;5.75;;;;;;;;;;5046429;28;20231;-75
2023/06/10 00:47:55;;;;;;;6.90;6.20;;;;;;;;;;5044545;28;20209;-75
2023/06/10 00:50:20;;;;;;;9.23;6.22;;;;;;;;;;5044345;28;20813;-75
2023/06/10 00:52:48;;;;;;;7.07;6.35;;;;;;;;;;5052093;28;20350;-75
2023/06/10 00:55:14;;;;;;;7.22;5.93;;;;;;;;;;5051432;28;20236;-75
2023/06/10 00:57:39;;;;;;;7.03;6.32;;;;;;;;;;5051281;28;20178;-75
2023/06/10 01:00:07;;;;;;;9.05;6.07;;;;;;;;;;5029983;28;20817;-76
2023/06/10 01:02:32;;;;;;;7.68;6.13;;;;;;;;;;5035382;28;20544;-76
2023/06/10 01:04:59;;;;;;;9.05;6.22;;;;;;;;;;5027724;28;20253;-76
2023/06/10 01:07:30;;;;;;;8.18;6.53;;;;;;;;;;5046774;28;20694;-76
2023/06/10 01:10:05;;;;;;;8.32;6.40;;;;;;;;;;5026883;28;20643;-76
2023/06/10 01:12:36;;;;;;;8.13;5.78;;;;;;;;;;5043610;28;20204;-76
2023/06/10 01:15:03;;;;;;;7.07;6.10;;;;;;;;;;5048291;28;20284;-76
2023/06/10 01:17:30;;;;;;;8.70;6.07;;;;;;;;;;5041967;28;20261;-76
2023/06/10 01:19:56;;;;;;;7.47;5.57;;;;;;;;;;5049191;28;20260;-76
2023/06/10 01:22:22;;;;;;;6.07;5.47;;;;;;;;;;5051766;28;20182;-76
2023/06/10 01:24:50;;;;;;;9.75;5.30;;;;;;;;;;5051335;28;20204;-76
2023/06/10 01:27:17;;;;;;;5.93;5.32;;;;;;;;;;5047224;28;20190;-76
2023/06/10 01:29:52;;;;;;;7.43;5.93;;;;;;;;;;5046780;28;20201;-76
2023/06/10 01:32:28;;;;;;;7.78;5.70;;;;;;;;;;5051524;28;20195;-76
2023/06/10 01:34:55;;;;;;;5.80;5.10;;;;;;;;;;5043856;28;20664;-76
2023/06/10 01:37:21;;;;;;;7.80;5.15;;;;;;;;;;5037134;28;20194;-76
2023/06/10 01:39:49;;;;;;;7.68;5.28;;;;;;;;;;5054057;28;20673;-76
2023/06/10 01:42:15;;;;;;;9.05;5.60;;;;;;;;;;5049811;28;20431;-76
2023/06/10 01:44:40;;;;;;;6.65;5.70;;;;;;;;;;5033033;28;20205;-76
2023/06/10 01:47:05;;;;;;;7.45;5.57;;;;;;;;;;5030442;28;20166;-75
2023/06/10 01:49:30;;;;;;;9.23;5.25;;;;;;;;;;5033102;28;20174;-76
2023/06/10 01:51:56;;;;;;;12.50;5.38;;;;;;;;;;5043686;28;20194;-76
2023/06/10 01:54:21;;;;;;;6.35;4.65;;;;;;;;;;5041201;28;20206;-76
2023/06/10 01:56:46;;;;;;;6.72;4.78;;;;;;;;;;5029052;28;20216;-76
2023/06/10 01:59:11;;;;;;;7.22;4.78;;;;;;;;;;5048585;28;20182;-76
2023/06/10 02:01:37;;;;;;;8.75;5.20;;;;;;;;;;5039436;28;20717;-76
2023/06/10 02:04:02;;;;;;;7.97;5.28;;;;;;;;;;5023533;28;20170;-76
2023/06/10 02:06:27;;;;;;;7.30;4.70;;;;;;;;;;5041435;28;20170;-76
2023/06/10 02:08:53;;;;;;;7.18;4.55;;;;;;;;;;5049555;28;20174;-76
2023/06/10 02:11:18;;;;;;;6.05;4.85;;;;;;;;;;5020738;28;20690;-76
2023/06/10 02:13:43;;;;;;;6.82;5.00;;;;;;;;;;5030390;28;20170;-76
2023/06/10 02:16:12;;;;;;;9.18;5.05;;;;;;;;;;5029368;28;20617;-76
2023/06/10 02:18:38;;;;;;;5.57;4.30;;;;;;;;;;5027297;28;20184;-76
2023/06/10 02:21:03;;;;;;;6.55;4.43;;;;;;;;;;5044743;28;20194;-76
2023/06/10 02:23:28;;;;;;;6.70;4.40;;;;;;;;;;5048851;28;20257;-76
2023/06/10 02:25:54;;;;;;;6.88;4.93;;;;;;;;;;5050327;28;20228;-76
2023/06/10 02:28:19;;;;;;;6.85;4.65;;;;;;;;;;5027660;28;20638;-76
2023/06/10 02:30:45;;;;;;;6.35;4.50;;;;;;;;;;5033944;28;20185;-76
2023/06/10 02:33:10;;;;;;;8.07;4.30;;;;;;;;;;5050174;28;20666;-76
2023/06/10 02:35:36;;;;;;;6.43;4.65;;;;;;;;;;5051283;28;20201;-76
2023/06/10 02:38:02;;;;;;;5.78;4.68;;;;;;;;;;5035658;28;20170;-76
2023/06/10 02:40:27;;;;;;;5.90;4.22;;;;;;;;;;5051328;28;20169;-76
2023/06/10 02:42:52;;;;;;;7.57;5.03;;;;;;;;;;5044365;28;20209;-76
2023/06/10 02:45:17;;;;;;;6.35;4.97;;;;;;;;;;5033378;28;20181;-76
2023/06/10 02:47:42;;;;;;;6.53;4.47;;;;;;;;;;5050225;28;20239;-76
2023/06/10 02:50:08;;;;;;;5.68;4.57;;;;;;;;;;5035264;28;20208;-76
2023/06/10 02:52:33;;;;;;;6.60;4.18;;;;;;;;;;5033484;28;20699;-76
2023/06/10 02:54:58;;;;;;;6.00;4.63;;;;;;;;;;5047022;28;20255;-76
2023/06/10 02:57:23;;;;;;;7.32;4.43;;;;;;;;;;5022452;28;20175;-76
2023/06/10 02:59:49;;;;;;;7.60;4.90;;;;;;;;;;5052215;28;20698;-76
2023/06/10 03:02:14;;;;;;;10.35;4.47;;;;;;;;;;5056288;28;20437;-76
2023/06/10 03:04:39;;;;;;;7.18;4.82;;;;;;;;;;5034883;28;20284;-76
2023/06/10 03:07:07;;;;;;;9.27;5.07;;;;;;;;;;5026857;28;20597;-76
2023/06/10 03:09:32;;;;;;;5.53;4.60;;;;;;;;;;5050399;28;20177;-76
2023/06/10 03:11:57;;;;;;;7.70;4.43;;;;;;;;;;5044088;28;20245;-76
2023/06/10 03:14:23;;;;;;;9.80;5.20;;;;;;;;;;5047394;28;20206;-76
2023/06/10 03:16:48;;;;;;;7.50;4.30;;;;;;;;;;5044863;28;20170;-76
2023/06/10 03:19:13;;;;;;;7.22;4.43;;;;;;;;;;5047963;28;20170;-76
2023/06/10 03:21:39;;;;;;;9.30;4.45;;;;;;;;;;5050169;28;20206;-76
2023/06/10 03:24:05;;;;;;;6.28;4.43;;;;;;;;;;5053449;28;20552;-76
2023/06/10 03:26:30;;;;;;;8.70;4.70;;;;;;;;;;5026548;28;20227;-76
2023/06/10 03:28:55;;;;;;;9.48;4.40;;;;;;;;;;5047451;28;20245;-76
2023/06/10 03:31:20;;;;;;;7.57;4.55;;;;;;;;;;5051020;28;20263;-76
2023/06/10 03:33:45;;;;;;;7.32;4.22;;;;;;;;;;5053762;28;20550;-76
2023/06/10 03:36:11;;;;;;;8.52;4.18;;;;;;;;;;5054230;28;20233;-76
2023/06/10 03:38:36;;;;;;;7.07;4.25;;;;;;;;;;5051919;28;20722;-76
2023/06/10 03:41:02;;;;;;;10.88;5.03;;;;;;;;;;5055938;28;20202;-76
2023/06/10 03:43:27;;;;;;;6.68;4.40;;;;;;;;;;5060322;28;20205;-76
2023/06/10 03:45:52;;;;;;;6.00;4.43;;;;;;;;;;5055765;28;20602;-76
2023/06/10 03:48:18;;;;;;;6.85;4.13;;;;;;;;;;5056812;28;20233;-75
2023/06/10 03:50:43;;;;;;;6.55;4.22;;;;;;;;;;5027578;28;20178;-75
2023/06/10 03:53:08;;;;;;;8.20;4.28;;;;;;;;;;5034433;28;20181;-76
2023/06/10 03:55:33;;;;;;;8.73;4.63;;;;;;;;;;5058424;28;20612;-76
2023/06/10 03:57:58;;;;;;;11.70;4.32;;;;;;;;;;5037204;28;20648;-75
2023/06/10 04:00:24;;;;;;;7.82;4.35;;;;;;;;;;5038475;28;20208;-76
2023/06/10 04:02:51;;;;;;;6.35;4.30;;;;;;;;;;5049207;28;20254;-76
2023/06/10 04:05:20;;;;;;;6.68;4.22;;;;;;;;;;5045322;28;20169;-75
2023/06/10 04:07:45;;;;;;;11.00;4.60;;;;;;;;;;5057221;28;20284;-75
2023/06/10 04:10:11;;;;;;;8.20;4.50;;;;;;;;;;5055583;28;20183;-75
2023/06/10 04:12:37;;;;;;;5.28;4.15;;;;;;;;;;5047116;28;20221;-75
2023/06/10 04:15:03;;;;;;;7.95;4.85;;;;;;;;;;5034168;28;20673;-76
2023/06/10 04:17:28;;;;;;;5.35;4.18;;;;;;;;;;5053107;28;20181;-75
2023/06/10 04:19:54;;;;;;;6.57;4.43;;;;;;;;;;5028331;28;20237;-75
2023/06/10 04:22:20;;;;;;;8.45;4.13;;;;;;;;;;5049251;28;20579;-76
2023/06/10 04:24:45;;;;;;;6.18;4.65;;;;;;;;;;5051925;28;20182;-76
2023/06/10 04:27:11;;;;;;;7.32;4.43;;;;;;;;;;5051608;28;20231;-76
2023/06/10 04:29:36;;;;;;;5.53;4.32;;;;;;;;;;5036900;28;20323;-75
2023/06/10 04:32:01;;;;;;;9.50;5.63;;;;;;;;;;5053984;28;20201;-75
2023/06/10 04:34:27;;;;;;;6.05;3.97;;;;;;;;;;5050737;28;20232;-75
2023/06/10 04:36:52;;;;;;;6.93;4.05;;;;;;;;;;5054197;28;20158;-75
2023/06/10 04:39:18;;;;;;;9.45;4.78;;;;;;;;;;5056275;28;20213;-75
2023/06/10 04:41:43;;;;;;;8.75;4.28;;;;;;;;;;5051764;28;20201;-75
2023/06/10 04:44:08;;;;;;;10.88;4.13;;;;;;;;;;5031100;28;20284;-75
2023/06/10 04:46:34;;;;;;;5.28;4.05;;;;;;;;;;5050819;28;20223;-75
2023/06/10 04:48:59;;;;;;;7.75;4.32;;;;;;;;;;5050909;28;20263;-75
2023/06/10 04:51:24;;;;;;;5.47;4.10;;;;;;;;;;5050578;28;20279;-75
2023/06/10 04:53:49;;;;;;;8.63;3.70;;;;;;;;;;5047900;28;20647;-75
2023/06/10 04:56:16;;;;;;;6.43;4.80;;;;;;;;;;5049945;28;20466;-75
2023/06/10 04:58:41;;;;;;;8.45;3.88;;;;;;;;;;5046403;28;20418;-75
2023/06/10 05:01:06;;;;;;;6.00;4.63;;;;;;;;;;5047618;28;20196;-76
2023/06/10 05:03:31;;;;;;;6.03;4.32;;;;;;;;;;5026120;28;20518;-75
2023/06/10 05:05:56;;;;;;;8.32;3.92;;;;;;;;;;5047518;28;20205;-75
2023/06/10 05:08:22;;;;;;;8.32;4.38;;;;;;;;;;5025917;28;20181;-76
2023/06/10 05:10:47;;;;;;;8.27;4.20;;;;;;;;;;5033744;28;20647;-76
2023/06/10 05:13:12;;;;;;;7.07;4.72;;;;;;;;;;5050465;28;20446;-76
2023/06/10 05:15:37;;;;;;;7.32;4.15;;;;;;;;;;5047047;28;20288;-76
2023/06/10 05:18:03;;;;;;;5.45;3.70;;;;;;;;;;5028723;28;20172;-75
2023/06/10 05:20:28;;;;;;;7.55;4.10;;;;;;;;;;5032437;28;20181;-77
2023/06/10 05:22:53;;;;;;;6.07;4.13;;;;;;;;;;5050923;28;20328;-75
2023/06/10 05:25:19;;;;;;;7.95;4.15;;;;;;;;;;5044010;28;20197;-75
2023/06/10 05:27:44;;;;;;;8.35;4.13;;;;;;;;;;5033970;28;20173;-75
2023/06/10 05:30:10;;;;;;;6.40;4.90;;;;;;;;;;5052273;28;20252;-75
2023/06/10 05:32:35;;;;;;;6.82;4.05;;;;;;;;;;5050777;28;20202;-75
2023/06/10 05:35:01;;;;;;;9.65;4.78;;;;;;;;;;5051692;28;20220;-74
2023/06/10 05:37:26;;;;;;;7.38;4.28;;;;;;;;;;5033700;28;20173;-75
2023/06/10 05:39:52;;;;;;;9.27;4.15;;;;;;;;;;5027894;28;20173;-74
2023/06/10 05:42:17;;;;;;;6.40;4.13;;;;;;;;;;5048706;28;20208;-76
2023/06/10 05:44:42;;;;;;;11.23;4.32;;;;;;;;;;5051115;28;20208;-75
2023/06/10 05:47:08;;;;;;;10.02;3.90;;;;;;;;;;5032818;28;20192;-76
2023/06/10 05:49:33;;;;;;;11.65;4.10;;;;;;;;;;5049458;28;20808;-75
2023/06/10 05:51:58;;;;;;;7.23;4.30;;;;;;;;;;5049542;28;20205;-75
2023/06/10 05:54:24;;;;;;;7.13;4.43;;;;;;;;;;5048788;28;20454;-76
2023/06/10 05:56:49;;;;;;;6.10;4.32;;;;;;;;;;5045713;28;20186;-75
2023/06/10 05:59:14;;;;;;;7.53;4.50;;;;;;;;;;5028491;28;20197;-75
2023/06/10 06:01:40;;;;;;;7.30;4.50;;;;;;;;;;5023978;28;20189;-76
2023/06/10 06:04:05;;;;;;;7.50;3.83;;;;;;;;;;5047927;28;20985;-75
2023/06/10 06:06:30;;;;;;;12.52;5.28;;;;;;;;;;5022058;28;20679;-75
2023/06/10 06:08:55;;;;;;;6.72;4.28;;;;;;;;;;5039556;28;20666;-76
2023/06/10 06:11:20;;;;;;;6.80;4.50;;;;;;;;;;5063155;22;20190;-70
2023/06/10 06:13:48;;;;;;;5.80;4.50;;;;;;;;;;5045647;28;20189;-70
2023/06/10 06:16:13;;;;;;;6.32;4.45;;;;;;;;;;5049773;28;20741;-70
2023/06/10 06:18:38;;;;;;;6.60;3.90;;;;;;;;;;5046953;28;20277;-70
2023/06/10 06:21:03;;;;;;;5.78;4.30;;;;;;;;;;5053527;28;20658;-69
2023/06/10 06:23:30;;;;;;;6.23;4.53;;;;;;;;;;5045584;28;20656;-69
2023/06/10 06:25:55;;;;;;;9.27;4.22;;;;;;;;;;5049061;28;20426;-69
2023/06/10 06:28:22;;;;;;;5.97;4.50;;;;;;;;;;5046786;28;20250;-71
2023/06/10 06:30:47;;;;;;;9.18;3.92;;;;;;;;;;5050270;28;20434;-70
2023/06/10 06:33:12;;;;;;;6.10;4.10;;;;;;;;;;5044074;28;20206;-69
2023/06/10 06:35:38;;;;;;;7.68;4.13;;;;;;;;;;5047099;28;20698;-69
2023/06/10 06:38:04;;;;;;;7.78;5.32;;;;;;;;;;5049470;28;20193;-69
2023/06/10 06:40:29;;;;;;;6.75;4.03;;;;;;;;;;5052689;28;20178;-69
2023/06/10 06:42:54;;;;;;;7.63;4.20;;;;;;;;;;5052252;28;20197;-68
2023/06/10 06:45:19;;;;;;;9.05;4.57;;;;;;;;;;5053827;28;20212;-69
2023/06/10 06:47:45;;;;;;;10.70;4.32;;;;;;;;;;5042966;28;20186;-69
2023/06/10 06:50:10;;;;;;;6.88;4.30;;;;;;;;;;5050460;28;20272;-71
2023/06/10 06:52:35;;;;;;;6.25;3.92;;;;;;;;;;5051944;28;20237;-70
2023/06/10 06:55:00;;;;;;;9.50;4.47;;;;;;;;;;5045230;28;20315;-70
2023/06/10 06:57:25;;;;;;;5.63;4.37;;;;;;;;;;5047503;28;20414;-69
2023/06/10 06:59:51;;;;;;;5.47;4.20;;;;;;;;;;5043464;28;20438;-70
2023/06/10 07:02:16;;;;;;;6.40;4.03;;;;;;;;;;5051001;28;20827;-70
2023/06/10 07:04:41;;;;;;;7.30;4.00;;;;;;;;;;5052134;28;20297;-70
2023/06/10 07:07:07;;;;;;;7.27;4.37;;;;;;;;;;5047193;28;20184;-67
2023/06/10 07:09:32;;;;;;;5.82;4.35;;;;;;;;;;5045893;28;20426;-67
2023/06/10 07:11:57;;;;;;;5.63;4.10;;;;;;;;;;5048836;28;20210;-68
2023/06/10 07:14:23;;;;;;;8.10;4.70;;;;;;;;;;5045454;28;20448;-68
2023/06/10 07:16:49;;;;;;;7.22;4.43;;;;;;;;;;5048222;28;20418;-67
2023/06/10 07:19:14;;;;;;;6.75;4.30;;;;;;;;;;5053344;28;20180;-67
2023/06/10 07:21:39;;;;;;;10.40;4.20;;;;;;;;;;5052378;28;20193;-67
2023/06/10 07:24:05;;;;;;;6.60;3.45;;;;;;;;;;5052507;28;20399;-67
2023/06/10 07:26:30;;;;;;;5.57;3.72;;;;;;;;;;5053571;28;20174;-68
2023/06/10 07:28:56;;;;;;;5.38;3.90;;;;;;;;;;5053190;28;20576;-67
2023/06/10 07:31:21;;;;;;;7.83;4.00;;;;;;;;;;5051738;28;20198;-67
2023/06/10 07:33:46;;;;;;;9.73;4.55;;;;;;;;;;5052601;28;20403;-67
2023/06/10 07:36:11;;;;;;;5.13;3.92;;;;;;;;;;5050999;28;20209;-65
2023/06/10 07:38:37;;;;;;;8.37;4.30;;;;;;;;;;5052964;28;20170;-68
2023/06/10 07:41:02;;;;;;;7.28;4.63;;;;;;;;;;5049656;28;20801;-67
2023/06/10 07:43:27;;;;;;;8.38;4.57;;;;;;;;;;5052865;28;20169;-66
2023/06/10 07:45:52;;;;;;;6.03;4.50;;;;;;;;;;5048673;28;20262;-67
2023/06/10 07:48:17;;;;;;;6.30;4.40;;;;;;;;;;5051442;28;20454;-67
2023/06/10 07:50:43;;;;;;;5.40;4.00;;;;;;;;;;5031414;28;20231;-67
2023/06/10 07:53:08;;;;;;;5.53;3.60;;;;;;;;;;5049559;28;20205;-68
2023/06/10 07:55:33;;;;;;;6.82;4.07;;;;;;;;;;5054714;28;20466;-66
2023/06/10 07:57:59;;;;;;;5.57;3.77;;;;;;;;;;5051814;28;20173;-67
2023/06/10 08:00:24;;;;;;;5.28;3.97;;;;;;;;;;5051400;28;20462;-66
2023/06/10 08:02:50;;;;;;;7.55;4.45;;;;;;;;;;5052365;28;20639;-66
2023/06/10 08:05:15;;;;;;;7.43;4.03;;;;;;;;;;5052482;28;20178;-66
2023/06/10 08:07:41;;;;;;;5.63;3.78;;;;;;;;;;5052094;28;20252;-66
2023/06/10 08:10:07;;;;;;;6.13;3.80;;;;;;;;;;5050041;28;20178;-66
2023/06/10 08:12:32;;;;;;;4.88;4.10;;;;;;;;;;5046615;28;21048;-66
2023/06/10 08:14:58;;;;;;;5.43;3.63;;;;;;;;;;5049262;28;20217;-65
2023/06/10 08:17:24;;;;;;;5.97;3.75;;;;;;;;;;5046111;28;20762;-67
2023/06/10 08:19:49;;;;;;;7.65;3.85;;;;;;;;;;5050934;28;20170;-67
2023/06/10 08:22:14;;;;;;;4.38;3.80;;;;;;;;;;5045569;28;20288;-66
2023/06/10 08:24:40;;;;;;;5.63;3.53;;;;;;;;;;5042036;28;20209;-66
2023/06/10 08:27:05;;;;;;;7.10;4.55;;;;;;;;;;5049472;28;20502;-67
2023/06/10 08:29:31;;;;;;;7.90;3.88;;;;;;;;;;5041159;28;20171;-67
2023/06/10 08:31:57;;;;;;;9.75;4.07;;;;;;;;;;5046551;28;20756;-67
2023/06/10 08:34:22;;;;;;;4.72;3.88;;;;;;;;;;5045556;28;20194;-66
2023/06/10 08:36:51;;;;;;;5.28;3.80;;;;;;;;;;5045775;28;20174;-67
2023/06/10 08:39:17;;;;;;;6.32;3.92;;;;;;;;;;5048526;28;20224;-67
2023/06/10 08:41:43;;;;;;;8.52;3.78;;;;;;;;;;5042128;28;20694;-68
2023/06/10 08:44:30;;;;;;;4.80;3.40;;;;;;;;;;5044782;28;20231;-66
2023/06/10 08:46:58;;;;;;;7.03;4.10;;;;;;;;;;5041825;28;20256;-67
2023/06/10 08:49:24;;;;;;;4.95;4.40;;;;;;;;;;5060554;28;20622;-67
2023/06/10 08:51:50;;;;;;;6.82;3.47;;;;;;;;;;5050875;28;20225;-68
2023/06/10 08:54:18;;;;;;;5.45;3.67;;;;;;;;;;5042894;28;20216;-66
2023/06/10 08:56:45;;;;;;;7.75;4.10;;;;;;;;;;5039942;28;20264;-67
2023/06/10 08:59:10;;;;;;;5.72;3.97;;;;;;;;;;5051037;28;20256;-67
2023/06/10 09:01:36;;;;;;;5.70;3.97;;;;;;;;;;5047917;28;20288;-66
2023/06/10 09:04:02;;;;;;;4.45;3.85;;;;;;;;;;5050921;28;20170;-66
2023/06/10 09:06:27;;;;;;;4.80;3.20;;;;;;;;;;5048907;28;20196;-67
2023/06/10 09:08:53;;;;;;;6.15;4.13;;;;;;;;;;5050990;28;20544;-67
2023/06/10 09:11:18;;;;;;;5.03;3.78;;;;;;;;;;5047449;28;20584;-67
2023/06/10 09:13:43;;;;;;;6.17;3.63;;;;;;;;;;5047260;28;20211;-67
2023/06/10 09:16:11;;;;;;;5.35;4.20;;;;;;;;;;5050898;28;20201;-67
2023/06/10 09:18:36;;;;;;;4.50;3.67;;;;;;;;;;5045447;28;20173;-66
2023/06/10 09:21:02;;;;;;;5.82;3.92;;;;;;;;;;5047072;28;20175;-66
2023/06/10 09:23:27;;;;;;;6.53;4.27;;;;;;;;;;5049521;28;20256;-66
2023/06/10 09:25:56;;;;;;;5.57;4.43;;;;;;;;;;5047742;28;20492;-66
2023/06/10 09:28:21;;;;;;;6.45;4.20;;;;;;;;;;5037548;28;20181;-66
2023/06/10 09:30:46;;;;;;;5.60;4.20;;;;;;;;;;5036913;28;20180;-66
2023/06/10 09:33:12;;;;;;;4.90;3.70;;;;;;;;;;5048262;28;20462;-66
2023/06/10 09:35:45;;;;;;;5.25;3.80;;;;;;;;;;5046393;28;20197;-66
2023/06/10 09:38:10;;;;;;;7.13;4.57;;;;;;;;;;5047306;28;20177;-67
2023/06/10 09:40:47;;;;;;;7.37;4.87;;;;;;;;;;5044890;28;20181;-67
2023/06/10 09:43:13;;;;;;;6.72;4.80;;;;;;;;;;5044060;28;20231;-67
2023/06/10 09:45:38;;;;;;;5.33;4.33;;;;;;;;;;5050659;28;20201;-66
2023/06/10 09:48:03;;;;;;;5.30;3.77;;;;;;;;;;5048006;28;20445;-66
2023/06/10 09:50:32;;;;;;;5.20;3.80;;;;;;;;;;5048751;28;20566;-66
2023/06/10 09:52:57;;;;;;;4.40;3.25;;;;;;;;;;5049204;28;20441;-66
2023/06/10 09:55:23;;;;;;;7.10;3.67;;;;;;;;;;5044104;28;20200;-65
2023/06/10 09:57:53;;;;;;;5.53;3.72;;;;;;;;;;5048771;28;20173;-65
2023/06/10 10:00:18;;;;;;;5.80;3.55;;;;;;;;;;5050258;28;20185;-66
2023/06/10 10:02:48;;;;;;;8.35;4.38;;;;;;;;;;5040672;28;20192;-66
2023/06/10 10:05:17;;;;;;;5.05;3.47;;;;;;;;;;5049227;28;20241;-66
2023/06/10 10:07:42;;;;;;;9.70;4.72;;;;;;;;;;5046870;28;20185;-69
2023/06/10 10:10:09;;;;;;;8.02;4.13;;;;;;;;;;5047216;28;20197;-68
2023/06/10 10:12:34;;;;;;;4.85;3.40;;;;;;;;;;5041560;28;20215;-75
2023/06/10 10:15:00;;;;;;;4.60;3.63;;;;;;;;;;5048414;28;20200;-75
2023/06/10 10:17:26;;;;;;;5.47;3.42;;;;;;;;;;5047630;28;20169;-75
2023/06/10 10:19:54;;;;;;;6.38;3.90;;;;;;;;;;5041112;28;20177;-74
2023/06/10 10:22:23;;;;;;;6.97;4.10;;;;;;;;;;5062183;28;20201;-74
2023/06/10 10:24:53;;;;;;;6.45;3.60;;;;;;;;;;5048037;28;20181;-74
2023/06/10 10:27:21;;;;;;;4.53;3.83;;;;;;;;;;5047892;28;20184;-74
2023/06/10 10:29:47;;;;;;;7.18;3.95;;;;;;;;;;5043091;28;20223;-74
2023/06/10 10:32:13;;;;;;;5.35;3.97;;;;;;;;;;5048202;28;20192;-73
2023/06/10 10:34:38;;;;;;;5.95;3.67;;;;;;;;;;5046372;28;20219;-75
2023/06/10 10:37:04;;;;;;;5.40;4.13;;;;;;;;;;5044145;28;20195;-76
2023/06/10 10:39:29;;;;;;;4.27;3.70;;;;;;;;;;5050361;28;20181;-75
2023/06/10 10:41:55;;;;;;;8.00;3.38;;;;;;;;;;5048777;28;20446;-76
2023/06/10 10:44:21;;;;;;;8.23;4.50;;;;;;;;;;5047347;28;20169;-75
2023/06/10 10:46:50;;;;;;;4.20;3.70;;;;;;;;;;5049457;28;20203;-76
2023/06/10 10:49:15;;;;;;;5.18;4.43;;;;;;;;;;5050059;28;20552;-76
2023/06/10 10:51:56;;;;;;;5.18;3.58;;;;;;;;;;5049197;28;20669;-76
2023/06/10 10:54:27;;;;;;;6.88;4.20;;;;;;;;;;5042427;28;20173;-76
2023/06/10 10:57:12;;;;;;;5.18;3.45;;;;;;;;;;5034272;28;20173;-76
2023/06/10 10:59:46;;;;;;;4.25;3.85;;;;;;;;;;5047799;28;20173;-76
2023/06/10 11:02:18;;;;;;;5.75;3.85;;;;;;;;;;5040563;28;20192;-75
2023/06/10 11:04:47;;;;;;;5.15;3.90;;;;;;;;;;5045938;28;20181;-76
2023/06/10 11:07:15;;;;;;;4.70;3.90;;;;;;;;;;5040324;28;20238;-77
2023/06/10 11:09:49;;;;;;;5.90;3.92;;;;;;;;;;5045553;28;20185;-75
2023/06/10 11:12:21;;;;;;;6.57;4.13;;;;;;;;;;5050322;28;20219;-76
2023/06/10 11:14:53;;;;;;;5.28;4.25;;;;;;;;;;5048298;28;20232;-77
2023/06/10 11:17:18;;;;;;;5.75;4.03;;;;;;;;;;5062802;28;20234;-75
2023/06/10 11:19:46;;;;;;;6.97;4.13;;;;;;;;;;5049029;28;20560;-76
2023/06/10 11:22:15;;;;;;;4.13;3.42;;;;;;;;;;5049229;28;20517;-77
2023/06/10 11:24:41;;;;;;;5.80;4.05;;;;;;;;;;5048978;28;20677;-75
2023/06/10 11:27:19;;;;;;;4.40;3.80;;;;;;;;;;5050716;28;20196;-77
2023/06/10 11:29:54;;;;;;;5.03;3.53;;;;;;;;;;5051129;28;20177;-76
2023/06/10 11:32:20;;;;;;;4.93;3.88;;;;;;;;;;5050489;28;20724;-77
2023/06/10 11:34:51;;;;;;;5.22;3.90;;;;;;;;;;5053217;28;20194;-77
2023/06/10 11:37:16;;;;;;;5.20;3.95;;;;;;;;;;5049812;28;20216;-77
2023/06/10 11:39:42;;;;;;;13.18;4.40;;;;;;;;;;5048311;28;20558;-76
2023/06/10 11:42:07;;;;;;;5.88;4.22;;;;;;;;;;5053082;28;20670;-77
2023/06/10 11:44:37;;;;;;;4.30;3.90;;;;;;;;;;5046327;28;20458;-76
2023/06/10 11:47:02;;;;;;;4.72;4.18;;;;;;;;;;5047836;28;20561;-76
2023/06/10 11:49:27;;;;;;;6.43;4.13;;;;;;;;;;5047548;28;20181;-76
2023/06/10 11:51:53;;;;;;;4.20;3.80;;;;;;;;;;5048267;28;20228;-76
2023/06/10 11:54:18;;;;;;;4.53;3.57;;;;;;;;;;5052383;28;20405;-77
2023/06/10 11:56:43;;;;;;;5.70;3.42;;;;;;;;;;5050113;28;20169;-76
2023/06/10 11:59:08;;;;;;;4.10;3.53;;;;;;;;;;5047221;28;20172;-77
2023/06/10 12:01:39;;;;;;;7.50;4.07;;;;;;;;;;5051745;28;20686;-76
2023/06/10 12:04:15;;;;;;;5.70;4.07;;;;;;;;;;5051471;28;20512;-75
2023/06/10 12:06:47;;;;;;;4.22;3.80;;;;;;;;;;5049589;28;20181;-76
2023/06/10 12:09:17;;;;;;;4.22;3.83;;;;;;;;;;5048434;28;20558;-76
2023/06/10 12:11:43;;;;;;;6.30;3.65;;;;;;;;;;5050847;22;20205;-71
2023/06/10 12:14:09;;;;;;;4.75;4.30;;;;;;;;;;5032206;28;20182;-72
2023/06/10 12:16:34;;;;;;;4.40;4.00;;;;;;;;;;5033556;28;20201;-72
2023/06/10 12:19:03;;;;;;;4.55;3.88;;;;;;;;;;5032898;28;20229;-72
2023/06/10 12:21:29;;;;;;;6.22;3.85;;;;;;;;;;5031802;28;20216;-71
2023/06/10 12:24:05;;;;;;;4.18;3.63;;;;;;;;;;5031599;28;20174;-71
2023/06/10 12:26:37;;;;;;;4.45;4.05;;;;;;;;;;5029199;28;20231;-71
2023/06/10 12:29:14;;;;;;;11.00;4.43;;;;;;;;;;5030635;28;20216;-72
2023/06/10 12:31:57;;;;;;;5.03;4.03;;;;;;;;;;5013166;28;20197;-72
2023/06/10 12:34:33;;;;;;;4.68;3.97;;;;;;;;;;5028928;28;20177;-71
2023/06/10 12:36:58;;;;;;;6.57;4.07;;;;;;;;;;5031180;28;20228;-71
2023/06/10 12:39:23;;;;;;;6.05;3.72;;;;;;;;;;5017474;28;20217;-71
2023/06/10 12:41:49;;;;;;;6.07;4.27;;;;;;;;;;5030534;28;20201;-72
2023/06/10 12:44:14;;;;;;;4.47;4.03;;;;;;;;;;5029980;28;20816;-72
2023/06/10 12:46:40;;;;;;;5.63;3.63;;;;;;;;;;5031300;28;20188;-73
2023/06/10 12:49:05;;;;;;;4.47;4.07;;;;;;;;;;5031254;28;20178;-73
2023/06/10 12:51:30;;;;;;;6.00;3.90;;;;;;;;;;5028705;28;20912;-73
2023/06/10 12:53:55;;;;;;;6.53;3.53;;;;;;;;;;5032111;28;20212;-73
2023/06/10 12:56:21;;;;;;;4.03;3.73;;;;;;;;;;5030783;28;20205;-73
2023/06/10 12:58:49;;;;;;;5.32;3.60;;;;;;;;;;5034049;28;20221;-72
2023/06/10 13:01:15;;;;;;;5.68;3.50;;;;;;;;;;5028216;28;20178;-73
2023/06/10 13:03:40;;;;;;;3.73;3.30;;;;;;;;;;5032679;28;20193;-73
2023/06/10 13:06:06;;;;;;;12.45;3.53;;;;;;;;;;5014373;28;20180;-73
2023/06/10 13:08:32;;;;;;;6.05;3.92;;;;;;;;;;5030807;28;20177;-72
2023/06/10 13:10:57;;;;;;;10.75;4.13;;;;;;;;;;5027389;28;20639;-72
2023/06/10 13:13:22;;;;;;;5.43;4.03;;;;;;;;;;5035046;28;20545;-72
2023/06/10 13:15:49;;;;;;;5.30;3.73;;;;;;;;;;5032924;28;20194;-72
2023/06/10 13:18:14;;;;;;;5.95;3.75;;;;;;;;;;5013751;28;20419;-71
2023/06/10 13:20:40;;;;;;;6.70;3.93;;;;;;;;;;5030356;28;20590;-73
2023/06/10 13:23:05;;;;;;;3.60;3.30;;;;;;;;;;5032917;28;20232;-71
2023/06/10 13:25:30;;;;;;;4.60;3.67;;;;;;;;;;5032359;28;20787;-72
2023/06/10 13:27:56;;;;;;;10.03;4.20;;;;;;;;;;5030468;28;20506;-71
2023/06/10 13:30:21;;;;;;;5.22;3.28;;;;;;;;;;5028842;28;20177;-72
2023/06/10 13:32:46;;;;;;;4.60;3.43;;;;;;;;;;5030909;28;20193;-71
2023/06/10 13:35:11;;;;;;;4.63;3.33;;;;;;;;;;5032402;28;20204;-71
2023/06/10 13:37:37;;;;;;;5.07;3.93;;;;;;;;;;5030910;28;20178;-72
2023/06/10 13:40:02;;;;;;;6.32;3.42;;;;;;;;;;5029377;28;20608;-72
2023/06/10 13:42:29;;;;;;;5.15;3.58;;;;;;;;;;5030428;28;20188;-72
2023/06/10 13:44:54;;;;;;;6.95;3.95;;;;;;;;;;5028013;28;20260;-73
2023/06/10 13:47:19;;;;;;;4.03;3.43;;;;;;;;;;5012411;28;20268;-72
2023/06/10 13:49:44;;;;;;;5.17;4.00;;;;;;;;;;5027427;28;20430;-72
2023/06/10 13:52:09;;;;;;;4.30;3.90;;;;;;;;;;5012533;28;20228;-72
2023/06/10 13:54:37;;;;;;;4.67;3.63;;;;;;;;;;5029703;28;20338;-72
2023/06/10 13:57:03;;;;;;;4.43;3.90;;;;;;;;;;5029185;28;20208;-72
2023/06/10 13:59:28;;;;;;;3.72;3.38;;;;;;;;;;5030710;28;20220;-72
2023/06/10 14:01:53;;;;;;;3.67;3.33;;;;;;;;;;5032929;28;20671;-72
2023/06/10 14:04:18;;;;;;;4.17;3.67;;;;;;;;;;5033689;28;20177;-73
2023/06/10 14:06:44;;;;;;;3.73;3.43;;;;;;;;;;5011945;28;20917;-72
2023/06/10 14:09:09;;;;;;;6.10;4.15;;;;;;;;;;5027931;28;20189;-73
2023/06/10 14:11:35;;;;;;;3.92;3.53;;;;;;;;;;5026244;28;20196;-72
2023/06/10 14:14:00;;;;;;;3.97;3.37;;;;;;;;;;5031282;28;20185;-72
2023/06/10 14:16:26;;;;;;;4.60;3.75;;;;;;;;;;5027713;28;20201;-73
2023/06/10 14:18:51;;;;;;;6.77;3.47;;;;;;;;;;5032732;28;20179;-73
2023/06/10 14:21:16;;;;;;;4.27;3.57;;;;;;;;;;5031406;28;20176;-73
2023/06/10 14:23:43;;;;;;;5.85;3.65;;;;;;;;;;5032164;28;20169;-72
2023/06/10 14:26:08;;;;;;;5.55;3.85;;;;;;;;;;5031918;28;20241;-73
2023/06/10 14:28:33;;;;;;;5.07;4.10;;;;;;;;;;5033580;28;20663;-75
2023/06/10 14:30:58;;;;;;;3.80;3.40;;;;;;;;;;5033533;28;20209;-71
2023/06/10 14:33:24;;;;;;;4.50;3.70;;;;;;;;;;5015152;28;20289;-73
2023/06/10 14:35:49;;;;;;;6.10;3.88;;;;;;;;;;5031520;28;20683;-73
2023/06/10 14:38:15;;;;;;;4.40;3.58;;;;;;;;;;5043229;28;20184;-73